sensor_id;sensor_type;location;lat;lon;timestamp;temperature;humidity
2999;DHT22;1509;51.964;7.628;2022-10-26T00:00:42;11.20;99.90
2999;DHT22;1509;51.964;7.628;2022-10-26T00:03:07;11.20;99.90
2999;DHT22;1509;51.964;7.628;2022-10-26T00:05:36;11.20;99.90
2999;DHT22;1509;51.964;7.628;2022-10-26T00:08:01;11.20;99.90
2999;DHT22;1509;51.964;7.628;2022-10-26T00:10:27;11.20;99.90
2999;DHT22;1509;51.964;7.628;2022-10-26T00:12:53;11.10;99.90
2999;DHT22;1509;51.964;7.628;2022-10-26T00:15:19;11.20;99.90
2999;DHT22;1509;51.964;7.628;2022-10-26T00:17:46;11.10;99.90
2999;DHT22;1509;51.964;7.628;2022-10-26T00:20:12;11.10;99.90
2999;DHT22;1509;51.964;7.628;2022-10-26T00:22:38;11.10;99.90
2999;DHT22;1509;51.964;7.628;2022-10-26T00:25:04;11.10;99.90
2999;DHT22;1509;51.964;7.628;2022-10-26T00:27:30;11.10;99.90
2999;DHT22;1509;51.964;7.628;2022-10-26T00:29:56;11.10;99.90
2999;DHT22;1509;51.964;7.628;2022-10-26T00:32:22;11.00;99.90
2999;DHT22;1509;51.964;7.628;2022-10-26T00:34:50;11.10;99.90
2999;DHT22;1509;51.964;7.628;2022-10-26T00:37:16;11.10;99.90
2999;DHT22;1509;51.964;7.628;2022-10-26T00:39:41;11.10;99.90
2999;DHT22;1509;51.964;7.628;2022-10-26T00:42:12;11.10;99.90
2999;DHT22;1509;51.964;7.628;2022-10-26T00:47:38;11.10;99.90
2999;DHT22;1509;51.964;7.628;2022-10-26T00:50:19;11.10;99.90
2999;DHT22;1509;51.964;7.628;2022-10-26T00:52:48;11.10;99.90
2999;DHT22;1509;51.964;7.628;2022-10-26T00:55:16;11.10;99.90
2999;DHT22;1509;51.964;7.628;2022-10-26T00:57:46;11.20;99.90
2999;DHT22;1509;51.964;7.628;2022-10-26T01:00:13;11.10;99.90
2999;DHT22;1509;51.964;7.628;2022-10-26T01:02:38;11.10;99.90
2999;DHT22;1509;51.964;7.628;2022-10-26T01:05:05;11.10;99.90
2999;DHT22;1509;51.964;7.628;2022-10-26T01:07:31;11.10;99.90
2999;DHT22;1509;51.964;7.628;2022-10-26T01:09:59;11.00;99.90
2999;DHT22;1509;51.964;7.628;2022-10-26T01:12:25;11.00;99.90
2999;DHT22;1509;51.964;7.628;2022-10-26T01:14:50;11.00;99.90
2999;DHT22;1509;51.964;7.628;2022-10-26T01:17:24;11.10;99.90
2999;DHT22;1509;51.964;7.628;2022-10-26T01:22:58;11.10;99.90
2999;DHT22;1509;51.964;7.628;2022-10-26T01:31:43;11.10;99.90
2999;DHT22;1509;51.964;7.628;2022-10-26T01:34:33;11.10;99.90
2999;DHT22;1509;51.964;7.628;2022-10-26T01:37:07;11.00;99.90
2999;DHT22;1509;51.964;7.628;2022-10-26T01:39:38;11.00;99.90
2999;DHT22;1509;51.964;7.628;2022-10-26T01:42:08;10.90;99.90
2999;DHT22;1509;51.964;7.628;2022-10-26T01:44:45;10.90;99.90
2999;DHT22;1509;51.964;7.628;2022-10-26T01:47:14;10.90;99.90
2999;DHT22;1509;51.964;7.628;2022-10-26T01:49:52;10.90;99.90
2999;DHT22;1509;51.964;7.628;2022-10-26T01:52:20;10.80;99.90
2999;DHT22;1509;51.964;7.628;2022-10-26T01:54:46;10.80;99.90
2999;DHT22;1509;51.964;7.628;2022-10-26T01:57:17;10.80;99.90
2999;DHT22;1509;51.964;7.628;2022-10-26T02:00:11;10.80;99.90
2999;DHT22;1509;51.964;7.628;2022-10-26T02:05:54;10.90;99.90
2999;DHT22;1509;51.964;7.628;2022-10-26T02:08:45;10.90;99.90
2999;DHT22;1509;51.964;7.628;2022-10-26T02:11:47;10.90;99.90
2999;DHT22;1509;51.964;7.628;2022-10-26T02:16:56;10.90;99.90
2999;DHT22;1509;51.964;7.628;2022-10-26T02:22:15;10.80;99.90
2999;DHT22;1509;51.964;7.628;2022-10-26T02:24:43;10.80;99.90
2999;DHT22;1509;51.964;7.628;2022-10-26T02:27:18;10.80;99.90
2999;DHT22;1509;51.964;7.628;2022-10-26T02:29:45;10.80;99.90
2999;DHT22;1509;51.964;7.628;2022-10-26T02:32:12;10.80;99.90
2999;DHT22;1509;51.964;7.628;2022-10-26T02:34:41;10.80;99.90
2999;DHT22;1509;51.964;7.628;2022-10-26T02:37:08;10.80;99.90
2999;DHT22;1509;51.964;7.628;2022-10-26T02:39:35;10.80;99.90
2999;DHT22;1509;51.964;7.628;2022-10-26T02:42:04;10.80;99.90
2999;DHT22;1509;51.964;7.628;2022-10-26T02:44:56;10.80;99.90
2999;DHT22;1509;51.964;7.628;2022-10-26T02:47:23;10.90;99.90
2999;DHT22;1509;51.964;7.628;2022-10-26T02:49:51;10.90;99.90
2999;DHT22;1509;51.964;7.628;2022-10-26T02:52:40;10.80;99.90
2999;DHT22;1509;51.964;7.628;2022-10-26T02:57:40;10.90;99.90
2999;DHT22;1509;51.964;7.628;2022-10-26T03:00:11;11.00;99.90
2999;DHT22;1509;51.964;7.628;2022-10-26T03:02:38;10.90;99.90
2999;DHT22;1509;51.964;7.628;2022-10-26T03:05:22;10.90;99.90
2999;DHT22;1509;51.964;7.628;2022-10-26T03:07:48;10.90;99.90
2999;DHT22;1509;51.964;7.628;2022-10-26T03:10:14;10.90;99.90
2999;DHT22;1509;51.964;7.628;2022-10-26T03:12:40;10.90;99.90
2999;DHT22;1509;51.964;7.628;2022-10-26T03:15:06;10.80;99.90
2999;DHT22;1509;51.964;7.628;2022-10-26T03:17:31;11.00;99.90
2999;DHT22;1509;51.964;7.628;2022-10-26T03:19:57;11.00;99.90
2999;DHT22;1509;51.964;7.628;2022-10-26T03:22:22;11.00;99.90
2999;DHT22;1509;51.964;7.628;2022-10-26T03:24:48;11.00;99.90
2999;DHT22;1509;51.964;7.628;2022-10-26T03:27:14;11.00;99.90
2999;DHT22;1509;51.964;7.628;2022-10-26T03:29:39;11.00;99.90
2999;DHT22;1509;51.964;7.628;2022-10-26T03:32:06;11.00;99.90
2999;DHT22;1509;51.964;7.628;2022-10-26T03:34:31;10.90;99.90
2999;DHT22;1509;51.964;7.628;2022-10-26T03:36:57;11.00;99.90
2999;DHT22;1509;51.964;7.628;2022-10-26T03:39:22;11.00;99.90
2999;DHT22;1509;51.964;7.628;2022-10-26T03:41:48;11.00;99.90
2999;DHT22;1509;51.964;7.628;2022-10-26T03:44:14;11.00;99.90
2999;DHT22;1509;51.964;7.628;2022-10-26T03:46:39;11.10;99.90
2999;DHT22;1509;51.964;7.628;2022-10-26T03:49:05;11.10;99.90
2999;DHT22;1509;51.964;7.628;2022-10-26T03:51:30;11.10;99.90
2999;DHT22;1509;51.964;7.628;2022-10-26T03:53:56;11.10;99.90
2999;DHT22;1509;51.964;7.628;2022-10-26T03:56:22;11.10;99.90
2999;DHT22;1509;51.964;7.628;2022-10-26T03:58:47;11.20;99.90
2999;DHT22;1509;51.964;7.628;2022-10-26T04:01:13;11.20;99.90
2999;DHT22;1509;51.964;7.628;2022-10-26T04:03:39;11.20;99.90
2999;DHT22;1509;51.964;7.628;2022-10-26T04:06:04;11.20;99.90
2999;DHT22;1509;51.964;7.628;2022-10-26T04:08:30;11.30;99.90
2999;DHT22;1509;51.964;7.628;2022-10-26T04:10:56;11.20;99.90
2999;DHT22;1509;51.964;7.628;2022-10-26T04:13:21;11.30;99.90
2999;DHT22;1509;51.964;7.628;2022-10-26T04:15:47;11.30;99.90
2999;DHT22;1509;51.964;7.628;2022-10-26T04:18:13;11.30;99.90
2999;DHT22;1509;51.964;7.628;2022-10-26T04:20:40;11.20;99.90
2999;DHT22;1509;51.964;7.628;2022-10-26T04:23:16;11.20;99.90
2999;DHT22;1509;51.964;7.628;2022-10-26T04:25:43;11.20;99.90
2999;DHT22;1509;51.964;7.628;2022-10-26T04:28:10;11.20;99.90
2999;DHT22;1509;51.964;7.628;2022-10-26T04:30:36;11.20;99.90
2999;DHT22;1509;51.964;7.628;2022-10-26T04:33:04;11.20;99.90
2999;DHT22;1509;51.964;7.628;2022-10-26T04:35:30;11.20;99.90
2999;DHT22;1509;51.964;7.628;2022-10-26T04:38:00;11.30;99.90
2999;DHT22;1509;51.964;7.628;2022-10-26T04:40:27;11.30;99.90
2999;DHT22;1509;51.964;7.628;2022-10-26T04:42:53;11.30;99.90
2999;DHT22;1509;51.964;7.628;2022-10-26T04:45:18;11.30;99.90
2999;DHT22;1509;51.964;7.628;2022-10-26T04:47:44;11.30;99.90
2999;DHT22;1509;51.964;7.628;2022-10-26T04:50:11;11.30;99.90
2999;DHT22;1509;51.964;7.628;2022-10-26T04:52:37;11.30;99.90
2999;DHT22;1509;51.964;7.628;2022-10-26T04:55:04;11.40;99.90
2999;DHT22;1509;51.964;7.628;2022-10-26T04:57:31;11.30;99.90
2999;DHT22;1509;51.964;7.628;2022-10-26T04:59:58;11.30;99.90
2999;DHT22;1509;51.964;7.628;2022-10-26T05:02:24;11.40;99.90
2999;DHT22;1509;51.964;7.628;2022-10-26T05:04:50;11.30;99.90
2999;DHT22;1509;51.964;7.628;2022-10-26T05:07:15;11.30;99.90
2999;DHT22;1509;51.964;7.628;2022-10-26T05:09:41;11.20;99.90
2999;DHT22;1509;51.964;7.628;2022-10-26T05:12:07;11.30;99.90
2999;DHT22;1509;51.964;7.628;2022-10-26T05:14:32;11.30;99.90
2999;DHT22;1509;51.964;7.628;2022-10-26T05:16:58;11.30;99.90
2999;DHT22;1509;51.964;7.628;2022-10-26T05:19:24;11.30;99.90
2999;DHT22;1509;51.964;7.628;2022-10-26T05:21:49;11.30;99.90
2999;DHT22;1509;51.964;7.628;2022-10-26T05:24:17;11.30;99.90
2999;DHT22;1509;51.964;7.628;2022-10-26T05:26:43;11.30;99.90
2999;DHT22;1509;51.964;7.628;2022-10-26T05:29:09;11.40;99.90
2999;DHT22;1509;51.964;7.628;2022-10-26T05:31:34;11.30;99.90
2999;DHT22;1509;51.964;7.628;2022-10-26T05:34:00;11.40;99.90
2999;DHT22;1509;51.964;7.628;2022-10-26T05:36:26;11.40;99.90
2999;DHT22;1509;51.964;7.628;2022-10-26T05:38:51;11.40;99.90
2999;DHT22;1509;51.964;7.628;2022-10-26T05:41:17;11.40;99.90
2999;DHT22;1509;51.964;7.628;2022-10-26T05:43:42;11.40;99.90
2999;DHT22;1509;51.964;7.628;2022-10-26T05:46:11;11.40;99.90
2999;DHT22;1509;51.964;7.628;2022-10-26T05:48:36;11.40;99.90
2999;DHT22;1509;51.964;7.628;2022-10-26T05:51:02;11.40;99.90
2999;DHT22;1509;51.964;7.628;2022-10-26T05:53:28;11.30;99.90
2999;DHT22;1509;51.964;7.628;2022-10-26T05:55:54;11.40;99.90
2999;DHT22;1509;51.964;7.628;2022-10-26T05:58:22;11.40;99.90
2999;DHT22;1509;51.964;7.628;2022-10-26T06:04:00;11.30;99.90
2999;DHT22;1509;51.964;7.628;2022-10-26T06:06:41;11.30;99.90
2999;DHT22;1509;51.964;7.628;2022-10-26T06:09:12;11.40;99.90
2999;DHT22;1509;51.964;7.628;2022-10-26T06:11:38;11.40;99.90
2999;DHT22;1509;51.964;7.628;2022-10-26T06:14:04;11.40;99.90
2999;DHT22;1509;51.964;7.628;2022-10-26T06:19:23;11.50;99.90
2999;DHT22;1509;51.964;7.628;2022-10-26T06:24:43;11.50;99.90
2999;DHT22;1509;51.964;7.628;2022-10-26T06:27:31;11.60;99.90
2999;DHT22;1509;51.964;7.628;2022-10-26T06:30:07;11.60;99.90
2999;DHT22;1509;51.964;7.628;2022-10-26T06:32:42;11.60;99.90
2999;DHT22;1509;51.964;7.628;2022-10-26T06:37:44;11.60;99.90
2999;DHT22;1509;51.964;7.628;2022-10-26T06:40:12;11.60;99.90
2999;DHT22;1509;51.964;7.628;2022-10-26T06:42:39;11.60;99.90
2999;DHT22;1509;51.964;7.628;2022-10-26T06:45:05;11.70;99.90
2999;DHT22;1509;51.964;7.628;2022-10-26T06:48:13;11.70;99.90
2999;DHT22;1509;51.964;7.628;2022-10-26T06:50:36;11.80;99.90
2999;DHT22;1509;51.964;7.628;2022-10-26T06:53:28;11.90;99.90
2999;DHT22;1509;51.964;7.628;2022-10-26T06:55:53;11.80;99.90
2999;DHT22;1509;51.964;7.628;2022-10-26T06:58:21;11.90;99.90
2999;DHT22;1509;51.964;7.628;2022-10-26T07:00:53;11.90;99.90
2999;DHT22;1509;51.964;7.628;2022-10-26T07:03:19;12.00;99.90
2999;DHT22;1509;51.964;7.628;2022-10-26T07:05:45;12.00;99.90
2999;DHT22;1509;51.964;7.628;2022-10-26T07:08:11;12.00;99.90
2999;DHT22;1509;51.964;7.628;2022-10-26T07:10:37;12.00;99.90
2999;DHT22;1509;51.964;7.628;2022-10-26T07:13:08;12.00;99.90
2999;DHT22;1509;51.964;7.628;2022-10-26T07:15:34;12.00;99.90
2999;DHT22;1509;51.964;7.628;2022-10-26T07:18:02;12.00;99.90
2999;DHT22;1509;51.964;7.628;2022-10-26T07:20:30;12.10;99.90
2999;DHT22;1509;51.964;7.628;2022-10-26T07:22:57;12.10;99.90
2999;DHT22;1509;51.964;7.628;2022-10-26T07:25:24;12.10;99.90
2999;DHT22;1509;51.964;7.628;2022-10-26T07:27:50;12.10;99.90
2999;DHT22;1509;51.964;7.628;2022-10-26T07:30:16;12.10;99.90
2999;DHT22;1509;51.964;7.628;2022-10-26T07:32:43;12.20;99.90
2999;DHT22;1509;51.964;7.628;2022-10-26T07:35:09;12.20;99.90
2999;DHT22;1509;51.964;7.628;2022-10-26T07:37:35;12.30;99.90
2999;DHT22;1509;51.964;7.628;2022-10-26T07:40:00;12.40;99.90
2999;DHT22;1509;51.964;7.628;2022-10-26T07:42:26;12.40;99.90
2999;DHT22;1509;51.964;7.628;2022-10-26T07:44:52;12.50;99.90
2999;DHT22;1509;51.964;7.628;2022-10-26T07:47:17;12.50;99.90
2999;DHT22;1509;51.964;7.628;2022-10-26T07:49:43;12.60;99.90
2999;DHT22;1509;51.964;7.628;2022-10-26T07:52:09;12.80;99.90
2999;DHT22;1509;51.964;7.628;2022-10-26T07:54:35;12.90;99.90
2999;DHT22;1509;51.964;7.628;2022-10-26T07:57:01;13.00;99.90
2999;DHT22;1509;51.964;7.628;2022-10-26T07:59:27;13.00;99.90
2999;DHT22;1509;51.964;7.628;2022-10-26T08:01:53;13.10;99.90
2999;DHT22;1509;51.964;7.628;2022-10-26T08:04:18;13.20;99.90
2999;DHT22;1509;51.964;7.628;2022-10-26T08:06:44;13.20;99.90
2999;DHT22;1509;51.964;7.628;2022-10-26T08:09:11;13.30;99.90
2999;DHT22;1509;51.964;7.628;2022-10-26T08:11:37;13.30;99.90
2999;DHT22;1509;51.964;7.628;2022-10-26T08:14:03;13.40;99.90
2999;DHT22;1509;51.964;7.628;2022-10-26T08:16:29;13.40;99.90
2999;DHT22;1509;51.964;7.628;2022-10-26T08:18:55;13.40;99.90
2999;DHT22;1509;51.964;7.628;2022-10-26T08:21:21;13.50;99.90
2999;DHT22;1509;51.964;7.628;2022-10-26T08:23:47;13.60;99.90
2999;DHT22;1509;51.964;7.628;2022-10-26T08:26:12;13.70;99.90
2999;DHT22;1509;51.964;7.628;2022-10-26T08:28:39;13.90;99.90
2999;DHT22;1509;51.964;7.628;2022-10-26T08:31:05;14.10;99.90
2999;DHT22;1509;51.964;7.628;2022-10-26T08:33:31;14.20;99.90
2999;DHT22;1509;51.964;7.628;2022-10-26T08:35:58;14.40;99.90
2999;DHT22;1509;51.964;7.628;2022-10-26T08:38:24;14.40;99.90
2999;DHT22;1509;51.964;7.628;2022-10-26T08:40:51;14.70;99.90
2999;DHT22;1509;51.964;7.628;2022-10-26T08:46:12;16.00;99.90
2999;DHT22;1509;51.964;7.628;2022-10-26T08:48:49;17.90;99.90
2999;DHT22;1509;51.964;7.628;2022-10-26T08:51:24;19.30;99.90
2999;DHT22;1509;51.964;7.628;2022-10-26T08:53:58;20.90;99.90
2999;DHT22;1509;51.964;7.628;2022-10-26T08:56:25;23.00;99.90
2999;DHT22;1509;51.964;7.628;2022-10-26T08:59:04;23.70;99.90
2999;DHT22;1509;51.964;7.628;2022-10-26T09:01:34;23.30;99.90
2999;DHT22;1509;51.964;7.628;2022-10-26T09:04:01;23.30;99.90
2999;DHT22;1509;51.964;7.628;2022-10-26T09:06:30;23.00;99.90
2999;DHT22;1509;51.964;7.628;2022-10-26T09:09:07;22.40;99.90
2999;DHT22;1509;51.964;7.628;2022-10-26T09:17:12;19.90;99.90
2999;DHT22;1509;51.964;7.628;2022-10-26T09:20:16;19.50;99.90
2999;DHT22;1509;51.964;7.628;2022-10-26T09:25:38;19.00;99.90
2999;DHT22;1509;51.964;7.628;2022-10-26T09:28:17;18.60;99.90
2999;DHT22;1509;51.964;7.628;2022-10-26T09:30:44;19.00;99.90
2999;DHT22;1509;51.964;7.628;2022-10-26T09:33:11;20.30;99.90
2999;DHT22;1509;51.964;7.628;2022-10-26T09:35:47;22.20;99.90
2999;DHT22;1509;51.964;7.628;2022-10-26T09:43:44;26.10;99.90
2999;DHT22;1509;51.964;7.628;2022-10-26T09:46:19;26.80;99.90
2999;DHT22;1509;51.964;7.628;2022-10-26T09:48:52;26.50;99.90
2999;DHT22;1509;51.964;7.628;2022-10-26T09:51:20;26.70;99.90
2999;DHT22;1509;51.964;7.628;2022-10-26T09:53:50;27.30;99.90
2999;DHT22;1509;51.964;7.628;2022-10-26T09:56:19;28.00;99.90
2999;DHT22;1509;51.964;7.628;2022-10-26T09:59:00;27.60;99.90
2999;DHT22;1509;51.964;7.628;2022-10-26T10:01:35;27.30;99.90
2999;DHT22;1509;51.964;7.628;2022-10-26T10:06:49;26.90;99.90
2999;DHT22;1509;51.964;7.628;2022-10-26T10:09:18;27.30;99.90
2999;DHT22;1509;51.964;7.628;2022-10-26T10:11:57;27.30;99.90
2999;DHT22;1509;51.964;7.628;2022-10-26T10:14:27;26.00;99.90
2999;DHT22;1509;51.964;7.628;2022-10-26T10:16:56;25.20;99.90
2999;DHT22;1509;51.964;7.628;2022-10-26T10:19:30;24.20;99.90
2999;DHT22;1509;51.964;7.628;2022-10-26T10:21:59;22.90;99.90
2999;DHT22;1509;51.964;7.628;2022-10-26T10:27:15;21.30;99.90
2999;DHT22;1509;51.964;7.628;2022-10-26T10:29:49;20.60;99.90
2999;DHT22;1509;51.964;7.628;2022-10-26T10:32:27;20.50;99.90
2999;DHT22;1509;51.964;7.628;2022-10-26T10:34:55;20.60;99.90
2999;DHT22;1509;51.964;7.628;2022-10-26T10:37:33;20.30;99.90
2999;DHT22;1509;51.964;7.628;2022-10-26T10:40:05;20.20;99.90
2999;DHT22;1509;51.964;7.628;2022-10-26T10:42:37;20.50;99.90
2999;DHT22;1509;51.964;7.628;2022-10-26T10:45:05;20.50;99.90
2999;DHT22;1509;51.964;7.628;2022-10-26T10:47:35;20.40;99.90
2999;DHT22;1509;51.964;7.628;2022-10-26T10:52:36;20.30;99.90
2999;DHT22;1509;51.964;7.628;2022-10-26T11:00:35;20.00;99.90
2999;DHT22;1509;51.964;7.628;2022-10-26T11:03:13;20.00;99.90
2999;DHT22;1509;51.964;7.628;2022-10-26T11:06:26;20.50;99.90
2999;DHT22;1509;51.964;7.628;2022-10-26T11:11:46;22.50;99.90
2999;DHT22;1509;51.964;7.628;2022-10-26T11:14:16;23.70;99.90
2999;DHT22;1509;51.964;7.628;2022-10-26T11:17:02;24.50;99.90
2999;DHT22;1509;51.964;7.628;2022-10-26T11:20:30;25.40;99.90
2999;DHT22;1509;51.964;7.628;2022-10-26T11:22:57;27.10;99.90
2999;DHT22;1509;51.964;7.628;2022-10-26T11:25:58;27.30;99.90
2999;DHT22;1509;51.964;7.628;2022-10-26T11:31:28;28.10;99.90
2999;DHT22;1509;51.964;7.628;2022-10-26T11:37:09;28.90;99.90
2999;DHT22;1509;51.964;7.628;2022-10-26T11:39:45;28.40;99.90
2999;DHT22;1509;51.964;7.628;2022-10-26T11:44:49;26.10;99.90
2999;DHT22;1509;51.964;7.628;2022-10-26T11:47:27;25.80;99.90
2999;DHT22;1509;51.964;7.628;2022-10-26T11:50:29;25.50;99.90
2999;DHT22;1509;51.964;7.628;2022-10-26T11:53:01;25.70;99.90
2999;DHT22;1509;51.964;7.628;2022-10-26T11:55:30;26.40;99.90
2999;DHT22;1509;51.964;7.628;2022-10-26T11:57:56;27.00;99.90
2999;DHT22;1509;51.964;7.628;2022-10-26T12:00:23;26.50;99.90
2999;DHT22;1509;51.964;7.628;2022-10-26T12:02:55;25.40;99.90
2999;DHT22;1509;51.964;7.628;2022-10-26T12:05:41;25.50;99.90
2999;DHT22;1509;51.964;7.628;2022-10-26T12:08:34;25.70;99.90
2999;DHT22;1509;51.964;7.628;2022-10-26T12:11:06;26.10;99.90
2999;DHT22;1509;51.964;7.628;2022-10-26T12:16:42;25.50;99.90
2999;DHT22;1509;51.964;7.628;2022-10-26T12:21:48;25.90;99.90
2999;DHT22;1509;51.964;7.628;2022-10-26T12:26:58;25.20;99.90
2999;DHT22;1509;51.964;7.628;2022-10-26T12:31:56;24.70;99.90
2999;DHT22;1509;51.964;7.628;2022-10-26T12:34:23;24.60;99.90
2999;DHT22;1509;51.964;7.628;2022-10-26T12:37:10;24.80;99.90
2999;DHT22;1509;51.964;7.628;2022-10-26T12:39:41;24.60;99.90
2999;DHT22;1509;51.964;7.628;2022-10-26T12:44:37;25.00;99.90
2999;DHT22;1509;51.964;7.628;2022-10-26T12:47:05;24.90;99.90
2999;DHT22;1509;51.964;7.628;2022-10-26T12:58:02;25.60;99.90
2999;DHT22;1509;51.964;7.628;2022-10-26T13:00:31;25.60;99.90
2999;DHT22;1509;51.964;7.628;2022-10-26T13:08:23;25.20;99.90
2999;DHT22;1509;51.964;7.628;2022-10-26T13:13:56;25.40;99.90
2999;DHT22;1509;51.964;7.628;2022-10-26T13:16:23;25.50;99.90
2999;DHT22;1509;51.964;7.628;2022-10-26T13:18:50;24.90;99.90
2999;DHT22;1509;51.964;7.628;2022-10-26T13:21:18;24.10;99.90
2999;DHT22;1509;51.964;7.628;2022-10-26T13:24:10;24.20;99.90
2999;DHT22;1509;51.964;7.628;2022-10-26T13:29:30;23.60;99.90
2999;DHT22;1509;51.964;7.628;2022-10-26T13:31:57;23.40;99.90
2999;DHT22;1509;51.964;7.628;2022-10-26T13:34:27;23.00;99.90
2999;DHT22;1509;51.964;7.628;2022-10-26T13:39:45;23.40;99.90
2999;DHT22;1509;51.964;7.628;2022-10-26T13:42:15;23.50;99.90
2999;DHT22;1509;51.964;7.628;2022-10-26T13:44:49;23.20;99.90
2999;DHT22;1509;51.964;7.628;2022-10-26T13:47:29;23.20;99.90
2999;DHT22;1509;51.964;7.628;2022-10-26T13:50:21;22.80;99.90
2999;DHT22;1509;51.964;7.628;2022-10-26T13:52:50;22.70;99.90
2999;DHT22;1509;51.964;7.628;2022-10-26T13:55:28;22.80;99.90
2999;DHT22;1509;51.964;7.628;2022-10-26T14:00:35;22.30;99.90
2999;DHT22;1509;51.964;7.628;2022-10-26T14:03:20;22.30;99.90
2999;DHT22;1509;51.964;7.628;2022-10-26T14:05:47;22.40;99.90
2999;DHT22;1509;51.964;7.628;2022-10-26T14:08:18;22.40;99.90
2999;DHT22;1509;51.964;7.628;2022-10-26T14:10:51;22.10;99.90
2999;DHT22;1509;51.964;7.628;2022-10-26T14:13:20;21.90;99.90
2999;DHT22;1509;51.964;7.628;2022-10-26T14:15:47;21.90;99.90
2999;DHT22;1509;51.964;7.628;2022-10-26T14:18:34;21.80;99.90
2999;DHT22;1509;51.964;7.628;2022-10-26T14:23:58;21.60;99.90
2999;DHT22;1509;51.964;7.628;2022-10-26T14:26:44;21.40;99.90
2999;DHT22;1509;51.964;7.628;2022-10-26T14:29:15;21.20;99.90
2999;DHT22;1509;51.964;7.628;2022-10-26T14:31:42;21.20;99.90
2999;DHT22;1509;51.964;7.628;2022-10-26T14:34:10;21.20;99.90
2999;DHT22;1509;51.964;7.628;2022-10-26T14:36:44;21.10;99.90
2999;DHT22;1509;51.964;7.628;2022-10-26T14:42:00;21.00;99.90
2999;DHT22;1509;51.964;7.628;2022-10-26T14:44:28;20.90;99.90
2999;DHT22;1509;51.964;7.628;2022-10-26T14:46:55;20.90;99.90
2999;DHT22;1509;51.964;7.628;2022-10-26T14:49:26;20.90;99.90
2999;DHT22;1509;51.964;7.628;2022-10-26T14:52:03;20.70;99.90
2999;DHT22;1509;51.964;7.628;2022-10-26T14:54:29;20.80;99.90
2999;DHT22;1509;51.964;7.628;2022-10-26T14:56:56;20.70;99.90
2999;DHT22;1509;51.964;7.628;2022-10-26T14:59:28;20.60;99.90
2999;DHT22;1509;51.964;7.628;2022-10-26T15:02:17;20.70;99.90
2999;DHT22;1509;51.964;7.628;2022-10-26T15:05:15;20.60;99.90
2999;DHT22;1509;51.964;7.628;2022-10-26T15:07:44;20.70;99.90
2999;DHT22;1509;51.964;7.628;2022-10-26T15:15:57;20.40;99.90
2999;DHT22;1509;51.964;7.628;2022-10-26T15:18:28;20.30;99.90
2999;DHT22;1509;51.964;7.628;2022-10-26T15:20:55;20.30;99.90
2999;DHT22;1509;51.964;7.628;2022-10-26T15:23:23;20.20;99.90
2999;DHT22;1509;51.964;7.628;2022-10-26T15:25:58;20.20;99.90
2999;DHT22;1509;51.964;7.628;2022-10-26T15:34:25;20.20;99.90
2999;DHT22;1509;51.964;7.628;2022-10-26T15:36:32;20.10;99.90
2999;DHT22;1509;51.964;7.628;2022-10-26T15:39:00;20.10;99.90
2999;DHT22;1509;51.964;7.628;2022-10-26T15:41:34;20.10;99.90
2999;DHT22;1509;51.964;7.628;2022-10-26T15:44:10;20.00;99.90
2999;DHT22;1509;51.964;7.628;2022-10-26T15:46:41;19.90;99.90
2999;DHT22;1509;51.964;7.628;2022-10-26T15:49:17;19.90;99.90
2999;DHT22;1509;51.964;7.628;2022-10-26T15:51:47;19.80;99.90
2999;DHT22;1509;51.964;7.628;2022-10-26T15:54:13;19.70;99.90
2999;DHT22;1509;51.964;7.628;2022-10-26T15:56:39;19.70;99.90
2999;DHT22;1509;51.964;7.628;2022-10-26T15:59:17;19.70;99.90
2999;DHT22;1509;51.964;7.628;2022-10-26T16:01:44;19.60;99.90
2999;DHT22;1509;51.964;7.628;2022-10-26T16:04:10;19.60;99.90
2999;DHT22;1509;51.964;7.628;2022-10-26T16:06:40;19.40;99.90
2999;DHT22;1509;51.964;7.628;2022-10-26T16:09:08;19.50;99.90
2999;DHT22;1509;51.964;7.628;2022-10-26T16:11:35;19.40;99.90
2999;DHT22;1509;51.964;7.628;2022-10-26T16:14:01;19.40;99.90
2999;DHT22;1509;51.964;7.628;2022-10-26T16:16:26;19.40;99.90
2999;DHT22;1509;51.964;7.628;2022-10-26T16:18:55;19.30;99.90
2999;DHT22;1509;51.964;7.628;2022-10-26T16:21:22;19.20;99.90
2999;DHT22;1509;51.964;7.628;2022-10-26T16:23:53;19.20;99.90
2999;DHT22;1509;51.964;7.628;2022-10-26T16:26:20;19.10;99.90
2999;DHT22;1509;51.964;7.628;2022-10-26T16:28:46;19.10;99.90
2999;DHT22;1509;51.964;7.628;2022-10-26T16:31:14;19.00;99.90
2999;DHT22;1509;51.964;7.628;2022-10-26T16:33:39;19.00;99.90
2999;DHT22;1509;51.964;7.628;2022-10-26T16:36:06;18.90;99.90
2999;DHT22;1509;51.964;7.628;2022-10-26T16:38:32;18.90;99.90
2999;DHT22;1509;51.964;7.628;2022-10-26T16:43:30;18.90;99.90
2999;DHT22;1509;51.964;7.628;2022-10-26T16:45:56;18.80;99.90
2999;DHT22;1509;51.964;7.628;2022-10-26T16:48:24;18.80;99.90
2999;DHT22;1509;51.964;7.628;2022-10-26T16:50:50;18.80;99.90
2999;DHT22;1509;51.964;7.628;2022-10-26T16:53:16;18.70;99.90
2999;DHT22;1509;51.964;7.628;2022-10-26T16:55:41;18.70;99.90
2999;DHT22;1509;51.964;7.628;2022-10-26T16:58:08;18.60;99.90
2999;DHT22;1509;51.964;7.628;2022-10-26T17:00:35;18.60;99.90
2999;DHT22;1509;51.964;7.628;2022-10-26T17:03:01;18.50;99.90
2999;DHT22;1509;51.964;7.628;2022-10-26T17:05:28;18.40;99.90
2999;DHT22;1509;51.964;7.628;2022-10-26T17:07:56;18.40;99.90
2999;DHT22;1509;51.964;7.628;2022-10-26T17:10:22;18.30;99.90
2999;DHT22;1509;51.964;7.628;2022-10-26T17:12:47;18.30;99.90
2999;DHT22;1509;51.964;7.628;2022-10-26T17:15:13;18.30;99.90
2999;DHT22;1509;51.964;7.628;2022-10-26T17:17:41;18.20;99.90
2999;DHT22;1509;51.964;7.628;2022-10-26T17:20:07;18.10;99.90
2999;DHT22;1509;51.964;7.628;2022-10-26T17:22:33;18.10;99.90
2999;DHT22;1509;51.964;7.628;2022-10-26T17:24:58;18.00;99.90
2999;DHT22;1509;51.964;7.628;2022-10-26T17:27:26;18.00;99.90
2999;DHT22;1509;51.964;7.628;2022-10-26T17:29:52;18.00;99.90
2999;DHT22;1509;51.964;7.628;2022-10-26T17:32:17;18.00;99.90
2999;DHT22;1509;51.964;7.628;2022-10-26T17:34:43;17.90;99.90
2999;DHT22;1509;51.964;7.628;2022-10-26T17:37:09;17.90;99.90
2999;DHT22;1509;51.964;7.628;2022-10-26T17:39:34;17.90;99.90
2999;DHT22;1509;51.964;7.628;2022-10-26T17:42:00;18.00;99.90
2999;DHT22;1509;51.964;7.628;2022-10-26T17:44:25;18.00;99.90
2999;DHT22;1509;51.964;7.628;2022-10-26T17:46:51;17.90;99.90
2999;DHT22;1509;51.964;7.628;2022-10-26T17:49:16;17.90;99.90
2999;DHT22;1509;51.964;7.628;2022-10-26T17:51:42;17.90;99.90
2999;DHT22;1509;51.964;7.628;2022-10-26T17:54:07;17.80;99.90
2999;DHT22;1509;51.964;7.628;2022-10-26T17:56:33;17.80;99.90
2999;DHT22;1509;51.964;7.628;2022-10-26T17:59:01;17.80;99.90
2999;DHT22;1509;51.964;7.628;2022-10-26T18:01:28;17.70;99.90
2999;DHT22;1509;51.964;7.628;2022-10-26T18:03:54;17.70;99.90
2999;DHT22;1509;51.964;7.628;2022-10-26T18:06:20;17.60;99.90
2999;DHT22;1509;51.964;7.628;2022-10-26T18:08:46;17.60;99.90
2999;DHT22;1509;51.964;7.628;2022-10-26T18:11:14;17.50;99.90
2999;DHT22;1509;51.964;7.628;2022-10-26T18:13:42;17.40;99.90
2999;DHT22;1509;51.964;7.628;2022-10-26T18:16:13;17.50;99.90
2999;DHT22;1509;51.964;7.628;2022-10-26T18:18:40;17.40;99.90
2999;DHT22;1509;51.964;7.628;2022-10-26T18:21:08;17.40;99.90
2999;DHT22;1509;51.964;7.628;2022-10-26T18:23:35;17.30;99.90
2999;DHT22;1509;51.964;7.628;2022-10-26T18:26:03;17.30;99.90
2999;DHT22;1509;51.964;7.628;2022-10-26T18:28:32;17.20;99.90
2999;DHT22;1509;51.964;7.628;2022-10-26T18:30:59;17.20;99.90
2999;DHT22;1509;51.964;7.628;2022-10-26T18:33:25;17.10;99.90